Time;durP1;ratioP1;P1;durP2;ratioP2;P2;SDS_P1;SDS_P2;PMS_P1;PMS_P2;Temp;Humidity;BMP_temperature;BMP_pressure;BME280_temperature;BME280_humidity;BME280_pressure;Samples;Min_cycle;Max_cycle;Signal;HPM_P1;HPM_P2
2022/08/30 00:02:59;;;;;;;2.35;1.45;;;16.60;99.90;;;;;;4995811;28;20090;-75
2022/08/30 00:05:29;;;;;;;1.63;1.38;;;16.50;99.90;;;;;;4995914;28;20055;-75
2022/08/30 00:07:56;;;;;;;2.75;1.50;;;16.50;99.90;;;;;;4996449;28;20042;-75
2022/08/30 00:10:23;;;;;;;3.40;1.38;;;16.30;99.90;;;;;;4995499;28;20386;-74
2022/08/30 00:12:49;;;;;;;2.60;1.40;;;16.50;99.90;;;;;;4996294;28;20046;-75
2022/08/30 00:15:16;;;;;;;1.73;1.20;;;16.30;99.90;;;;;;4996609;28;20196;-75
2022/08/30 00:17:43;;;;;;;4.63;1.20;;;16.30;99.90;;;;;;4996621;28;20140;-75
2022/08/30 00:20:14;;;;;;;2.67;1.00;;;16.30;99.90;;;;;;4995906;28;20046;-74
2022/08/30 00:22:40;;;;;;;1.63;1.20;;;16.50;99.90;;;;;;4996998;28;20051;-74
2022/08/30 00:25:06;;;;;;;1.42;0.90;;;16.30;99.90;;;;;;4996222;28;20127;-74
2022/08/30 00:27:32;;;;;;;3.22;1.00;;;16.30;99.90;;;;;;4994999;28;20133;-74
2022/08/30 00:29:58;;;;;;;3.88;1.50;;;16.20;99.90;;;;;;4996339;28;20042;-74
2022/08/30 00:32:24;;;;;;;1.73;1.00;;;16.30;99.90;;;;;;4996017;28;20050;-74
2022/08/30 00:34:51;;;;;;;1.50;1.15;;;16.50;99.90;;;;;;4994847;28;20046;-74
2022/08/30 00:37:17;;;;;;;2.83;1.15;;;16.20;99.90;;;;;;4996018;28;20449;-74
2022/08/30 00:39:43;;;;;;;2.35;1.10;;;16.20;99.90;;;;;;4995908;28;20050;-75
2022/08/30 00:42:10;;;;;;;3.70;1.35;;;16.30;99.90;;;;;;4995810;28;20046;-75
2022/08/30 00:44:35;;;;;;;2.78;1.10;;;16.20;99.90;;;;;;4994647;28;20057;-75
2022/08/30 00:47:01;;;;;;;4.60;1.48;;;16.30;99.90;;;;;;4995772;28;20042;-74
2022/08/30 00:49:28;;;;;;;3.30;1.25;;;16.10;99.90;;;;;;4995679;28;20046;-75
2022/08/30 00:51:55;;;;;;;2.97;1.27;;;16.30;99.90;;;;;;4996400;28;20042;-76
2022/08/30 00:54:24;;;;;;;2.08;1.27;;;16.10;99.90;;;;;;4995061;28;20501;-75
2022/08/30 00:56:51;;;;;;;2.55;1.38;;;16.10;99.90;;;;;;4994627;28;20185;-75
2022/08/30 00:59:18;;;;;;;2.70;1.60;;;16.00;99.90;;;;;;4995676;28;20054;-74
2022/08/30 01:01:44;;;;;;;3.10;1.20;;;16.10;99.90;;;;;;4994308;28;20057;-74
2022/08/30 01:04:10;;;;;;;3.58;1.30;;;16.30;99.90;;;;;;4995418;28;20042;-74
2022/08/30 01:06:38;;;;;;;3.67;1.40;;;16.20;99.90;;;;;;4994700;28;20054;-74
2022/08/30 01:09:05;;;;;;;2.85;1.17;;;16.30;99.90;;;;;;4995575;28;20394;-75
2022/08/30 01:11:34;;;;;;;2.30;1.50;;;16.00;99.90;;;;;;4995261;28;20509;-75
2022/08/30 01:14:01;;;;;;;2.63;1.17;;;16.00;99.90;;;;;;4994252;28;20129;-74
2022/08/30 01:16:31;;;;;;;2.40;1.30;;;16.10;99.90;;;;;;4995156;28;20139;-74
2022/08/30 01:18:57;;;;;;;2.95;1.45;;;16.00;99.90;;;;;;4995127;28;20046;-75
2022/08/30 01:21:45;;;;;;;2.55;1.55;;;16.10;99.90;;;;;;4995496;28;20045;-75
2022/08/30 01:24:11;;;;;;;2.08;1.40;;;15.90;99.90;;;;;;4993883;28;20046;-75
2022/08/30 01:26:38;;;;;;;2.80;1.30;;;16.00;99.90;;;;;;4993816;28;20112;-75
2022/08/30 01:29:08;;;;;;;3.20;1.33;;;16.00;99.90;;;;;;4994973;28;20051;-74
2022/08/30 01:31:35;;;;;;;4.10;1.70;;;16.00;99.90;;;;;;4995030;28;20050;-74
2022/08/30 01:34:06;;;;;;;2.30;1.20;;;16.00;99.90;;;;;;4977439;28;20050;-75
2022/08/30 01:36:36;;;;;;;2.45;1.38;;;16.20;99.90;;;;;;4994834;28;20090;-75
2022/08/30 01:39:03;;;;;;;2.45;1.52;;;16.00;99.90;;;;;;4993532;28;20133;-76
2022/08/30 01:41:34;;;;;;;3.47;1.20;;;16.20;99.90;;;;;;4994787;28;20053;-75
2022/08/30 01:44:06;;;;;;;2.75;1.40;;;16.00;99.90;;;;;;4993776;28;20050;-75
2022/08/30 01:46:35;;;;;;;2.80;1.30;;;16.10;99.90;;;;;;4993621;28;20061;-74
2022/08/30 01:49:03;;;;;;;2.33;1.30;;;15.90;99.90;;;;;;4994672;28;20057;-74
2022/08/30 01:51:29;;;;;;;3.65;1.48;;;15.90;99.90;;;;;;4993862;28;20062;-75
2022/08/30 01:53:55;;;;;;;2.25;1.30;;;15.90;99.90;;;;;;4994538;28;20046;-75
2022/08/30 01:56:23;;;;;;;2.78;1.20;;;15.90;99.90;;;;;;4994444;28;20050;-75
2022/08/30 01:58:49;;;;;;;2.75;1.33;;;16.00;99.90;;;;;;4994285;28;20054;-75
2022/08/30 02:01:18;;;;;;;2.83;1.23;;;15.90;99.90;;;;;;4995239;28;20114;-75
2022/08/30 02:03:45;;;;;;;2.33;1.50;;;15.80;99.90;;;;;;4994506;28;20050;-75
2022/08/30 02:06:14;;;;;;;3.47;1.40;;;15.80;99.90;;;;;;4993506;28;20089;-75
2022/08/30 02:08:41;;;;;;;1.70;1.23;;;15.80;99.90;;;;;;4994318;28;20053;-74
2022/08/30 02:11:08;;;;;;;3.35;1.60;;;15.90;99.90;;;;;;4994622;28;20046;-75
2022/08/30 02:13:36;;;;;;;2.00;1.70;;;15.90;99.90;;;;;;4994299;28;20049;-75
2022/08/30 02:16:04;;;;;;;4.80;1.48;;;15.70;99.90;;;;;;4994247;28;20090;-75
2022/08/30 02:18:33;;;;;;;3.83;1.52;;;15.70;99.90;;;;;;4994585;28;20046;-75
2022/08/30 02:20:59;;;;;;;3.30;1.23;;;15.80;99.90;;;;;;4994135;28;20049;-75
2022/08/30 02:23:26;;;;;;;4.43;1.45;;;15.90;99.90;;;;;;4993309;28;20050;-75
2022/08/30 02:25:53;;;;;;;3.22;1.70;;;15.80;99.90;;;;;;4995925;28;20070;-75
2022/08/30 02:28:19;;;;;;;2.28;1.42;;;15.90;99.90;;;;;;5001283;28;20046;-75
2022/08/30 02:30:46;;;;;;;3.67;1.38;;;15.70;99.90;;;;;;5001480;28;20043;-75
2022/08/30 02:33:12;;;;;;;2.20;1.30;;;15.80;99.90;;;;;;4999710;28;20046;-75
2022/08/30 02:35:37;;;;;;;3.10;1.40;;;15.80;99.90;;;;;;5000460;28;20491;-75
2022/08/30 02:38:04;;;;;;;3.28;1.42;;;15.80;99.90;;;;;;4999438;28;20084;-75
2022/08/30 02:40:30;;;;;;;2.30;1.38;;;15.90;99.90;;;;;;4999582;28;20046;-75
2022/08/30 02:42:56;;;;;;;2.95;1.50;;;15.80;99.90;;;;;;4967366;28;20129;-76
2022/08/30 02:45:22;;;;;;;2.40;1.40;;;15.90;99.90;;;;;;4999345;28;20530;-75
2022/08/30 02:47:48;;;;;;;2.72;1.40;;;15.90;99.90;;;;;;4999327;28;20046;-76
2022/08/30 02:50:14;;;;;;;3.40;1.40;;;15.80;99.90;;;;;;4983226;28;20053;-76
2022/08/30 02:52:40;;;;;;;2.08;1.52;;;15.80;99.90;;;;;;4999185;28;20105;-76
2022/08/30 02:55:07;;;;;;;4.07;1.67;;;16.00;99.90;;;;;;4983483;28;20418;-76
2022/08/30 02:57:33;;;;;;;1.73;1.48;;;15.80;99.90;;;;;;4999505;28;20054;-75
2022/08/30 03:00:00;;;;;;;3.10;1.90;;;15.80;99.90;;;;;;5000351;28;20038;-76
2022/08/30 03:02:26;;;;;;;4.97;1.63;;;15.90;99.90;;;;;;5000629;28;20068;-76
2022/08/30 03:04:51;;;;;;;4.03;1.80;;;15.90;99.90;;;;;;4999116;28;20048;-76
2022/08/30 03:07:17;;;;;;;2.83;1.80;;;16.00;99.90;;;;;;4999153;28;20046;-76
2022/08/30 03:09:43;;;;;;;4.57;1.50;;;15.70;99.90;;;;;;4999103;28;20367;-75
2022/08/30 03:12:09;;;;;;;2.17;1.73;;;15.80;99.90;;;;;;4999982;28;20075;-75
2022/08/30 03:14:37;;;;;;;3.47;1.73;;;15.80;99.90;;;;;;5000262;28;20046;-75
2022/08/30 03:17:06;;;;;;;2.85;1.73;;;16.00;99.90;;;;;;4999957;28;20520;-75
2022/08/30 03:19:33;;;;;;;3.15;1.55;;;15.80;99.90;;;;;;5000225;28;20386;-74
2022/08/30 03:21:58;;;;;;;2.55;1.65;;;15.80;99.90;;;;;;5000077;28;20090;-75
2022/08/30 03:24:25;;;;;;;2.83;1.42;;;15.80;99.90;;;;;;4998973;28;20089;-74
2022/08/30 03:26:51;;;;;;;3.25;1.73;;;15.90;99.90;;;;;;5000189;28;20101;-75
2022/08/30 03:29:16;;;;;;;3.17;1.50;;;15.90;99.90;;;;;;5000471;28;20372;-75
2022/08/30 03:31:42;;;;;;;3.00;1.58;;;15.70;99.90;;;;;;5000097;28;20053;-75
2022/08/30 03:34:09;;;;;;;4.18;2.05;;;15.80;99.90;;;;;;5000098;28;20081;-75
2022/08/30 03:36:37;;;;;;;2.90;1.60;;;15.60;99.90;;;;;;4999165;28;20482;-75
2022/08/30 03:39:04;;;;;;;3.75;1.70;;;15.80;99.90;;;;;;4996205;28;20055;-75
2022/08/30 03:41:31;;;;;;;3.63;1.58;;;15.60;99.90;;;;;;4996897;28;20133;-75
2022/08/30 03:43:57;;;;;;;2.72;1.70;;;15.50;99.90;;;;;;4996923;28;20066;-76
2022/08/30 03:46:23;;;;;;;2.53;1.73;;;15.70;99.90;;;;;;4995901;28;20046;-75
2022/08/30 03:48:50;;;;;;;4.72;1.70;;;15.60;99.90;;;;;;4997125;28;20101;-75
2022/08/30 03:51:17;;;;;;;3.22;1.85;;;15.50;99.90;;;;;;4995795;28;20073;-75
2022/08/30 03:53:43;;;;;;;2.90;2.10;;;15.50;99.90;;;;;;4995627;28;20132;-75
2022/08/30 03:56:09;;;;;;;2.92;1.80;;;15.50;99.90;;;;;;4996237;28;20058;-75
2022/08/30 03:58:35;;;;;;;3.08;1.67;;;15.50;99.90;;;;;;4996459;28;20080;-75
2022/08/30 04:01:01;;;;;;;3.65;2.15;;;15.40;99.90;;;;;;4996621;28;20042;-75
2022/08/30 04:03:26;;;;;;;2.83;1.95;;;15.40;99.90;;;;;;4979208;28;20177;-75
2022/08/30 04:05:53;;;;;;;2.35;1.95;;;15.30;99.90;;;;;;4995338;28;20101;-75
2022/08/30 04:08:19;;;;;;;4.13;2.15;;;15.50;99.90;;;;;;4997019;28;20049;-74
2022/08/30 04:10:46;;;;;;;3.60;2.20;;;15.40;99.90;;;;;;4996482;28;20046;-74
2022/08/30 04:13:13;;;;;;;4.00;2.47;;;15.30;99.90;;;;;;4995244;28;20116;-75
2022/08/30 04:15:39;;;;;;;3.38;2.17;;;15.20;99.90;;;;;;4995247;28;20042;-75
2022/08/30 04:18:05;;;;;;;2.83;2.03;;;15.20;99.90;;;;;;4996022;28;20097;-75
2022/08/30 04:20:30;;;;;;;5.30;2.35;;;15.30;99.90;;;;;;4994799;28;20042;-75
2022/08/30 04:22:56;;;;;;;2.67;2.10;;;15.10;99.90;;;;;;4995259;28;20082;-75
2022/08/30 04:25:22;;;;;;;3.60;2.03;;;15.10;99.90;;;;;;4996058;28;20053;-75
2022/08/30 04:27:48;;;;;;;2.65;2.35;;;15.10;99.90;;;;;;4979323;28;20046;-74
2022/08/30 04:30:16;;;;;;;3.67;1.88;;;15.10;99.90;;;;;;4994926;28;20046;-75
2022/08/30 04:32:42;;;;;;;4.07;1.83;;;15.00;99.90;;;;;;4996088;28;20047;-75
2022/08/30 04:35:09;;;;;;;3.53;2.30;;;15.10;99.90;;;;;;4994840;28;20108;-75
2022/08/30 04:37:36;;;;;;;2.75;2.03;;;14.90;99.90;;;;;;4995668;28;20489;-75
2022/08/30 04:40:04;;;;;;;3.60;1.75;;;14.90;99.90;;;;;;4995533;28;20046;-76
2022/08/30 04:42:32;;;;;;;3.25;1.88;;;15.00;99.90;;;;;;4996678;28;20054;-75
2022/08/30 04:45:00;;;;;;;3.80;2.35;;;14.90;99.90;;;;;;4995819;28;20478;-76
2022/08/30 04:47:26;;;;;;;3.13;1.83;;;14.70;99.90;;;;;;4978879;28;20076;-75
2022/08/30 04:49:52;;;;;;;3.92;1.98;;;14.70;99.90;;;;;;4994814;28;20042;-75
2022/08/30 04:52:18;;;;;;;2.35;1.63;;;14.70;99.90;;;;;;4994436;28;20050;-74
2022/08/30 04:54:44;;;;;;;3.13;2.00;;;14.80;99.90;;;;;;4995436;28;20100;-75
2022/08/30 04:57:09;;;;;;;3.58;2.38;;;14.70;99.90;;;;;;4995588;28;20122;-75
2022/08/30 04:59:37;;;;;;;3.00;2.00;;;14.80;99.90;;;;;;4995556;28;20078;-75
2022/08/30 05:02:03;;;;;;;2.95;2.25;;;14.60;99.90;;;;;;4995556;28;20038;-75
2022/08/30 05:04:29;;;;;;;4.10;2.20;;;14.60;99.90;;;;;;4995428;28;20104;-75
2022/08/30 05:06:55;;;;;;;4.13;2.90;;;14.60;99.90;;;;;;4995029;28;20050;-75
2022/08/30 05:09:21;;;;;;;3.35;2.65;;;14.60;99.90;;;;;;4995389;28;20402;-75
2022/08/30 05:11:47;;;;;;;3.35;2.20;;;14.60;99.90;;;;;;4994924;28;20050;-75
2022/08/30 05:14:13;;;;;;;2.47;2.22;;;14.60;99.90;;;;;;4994298;28;20474;-75
2022/08/30 05:16:40;;;;;;;2.80;2.55;;;14.60;99.90;;;;;;4995738;28;20081;-75
2022/08/30 05:19:06;;;;;;;3.30;2.33;;;14.60;99.90;;;;;;4994005;28;20061;-75
2022/08/30 05:21:32;;;;;;;3.78;2.10;;;14.50;99.90;;;;;;4995308;28;20084;-75
2022/08/30 05:23:59;;;;;;;5.97;2.05;;;14.50;99.90;;;;;;4994202;28;20192;-76
2022/08/30 05:26:33;;;;;;;3.28;2.40;;;14.50;99.90;;;;;;4995357;28;20057;-75
2022/08/30 05:28:59;;;;;;;3.28;2.38;;;14.80;99.90;;;;;;4995375;28;20058;-76
2022/08/30 05:31:28;;;;;;;5.63;2.55;;;14.60;99.90;;;;;;4994071;28;20437;-75
2022/08/30 05:33:55;;;;;;;3.92;2.42;;;14.50;99.90;;;;;;4994082;28;20402;-75
2022/08/30 05:36:23;;;;;;;3.15;2.50;;;14.70;99.90;;;;;;4995373;28;20058;-75
2022/08/30 05:38:49;;;;;;;4.18;2.70;;;14.60;99.90;;;;;;4994836;28;20460;-76
2022/08/30 05:41:18;;;;;;;4.72;2.63;;;14.70;99.90;;;;;;4994717;28;20052;-76
2022/08/30 05:43:43;;;;;;;3.83;2.88;;;14.60;99.90;;;;;;4995281;28;20058;-75
2022/08/30 05:46:12;;;;;;;4.20;2.95;;;14.70;99.90;;;;;;4977270;28;20398;-75
2022/08/30 05:48:39;;;;;;;5.95;3.33;;;14.70;99.90;;;;;;4993931;28;20042;-75
2022/08/30 05:51:20;;;;;;;4.07;3.20;;;14.70;99.90;;;;;;4993436;28;20097;-75
2022/08/30 05:53:48;;;;;;;5.22;3.10;;;14.80;99.90;;;;;;4994624;28;20137;-76
2022/08/30 05:56:16;;;;;;;5.20;3.20;;;14.80;99.90;;;;;;4977354;28;20097;-75
2022/08/30 05:58:43;;;;;;;4.22;3.25;;;14.90;99.90;;;;;;4994492;28;20042;-76
2022/08/30 06:01:28;;;;;;;5.53;2.53;;;14.90;99.90;;;;;;4993809;28;20382;-76
2022/08/30 06:03:55;;;;;;;3.58;2.88;;;14.90;99.90;;;;;;4993878;28;20097;-76
2022/08/30 06:06:21;;;;;;;3.70;2.67;;;15.10;99.90;;;;;;4994335;28;20049;-75
2022/08/30 06:08:48;;;;;;;2.78;2.47;;;15.00;99.90;;;;;;4994051;28;20608;-76
2022/08/30 06:11:16;;;;;;;5.22;2.50;;;15.10;99.90;;;;;;4993164;28;20529;-76
2022/08/30 06:13:42;;;;;;;2.88;2.10;;;15.20;99.90;;;;;;4995121;28;20359;-76
2022/08/30 06:16:11;;;;;;;5.07;1.77;;;15.10;99.90;;;;;;4994317;28;20046;-76
2022/08/30 06:18:37;;;;;;;4.90;2.08;;;15.30;99.90;;;;;;4977139;28;20414;-76
2022/08/30 06:21:03;;;;;;;2.33;1.80;;;15.40;99.90;;;;;;4994165;28;20050;-75
2022/08/30 06:23:29;;;;;;;3.92;1.55;;;15.70;99.90;;;;;;4993906;28;20090;-76
2022/08/30 06:25:55;;;;;;;2.80;1.20;;;15.60;99.90;;;;;;4993061;28;20042;-75
2022/08/30 06:28:21;;;;;;;2.72;1.20;;;15.70;99.90;;;;;;4994158;28;20050;-75
2022/08/30 06:30:47;;;;;;;4.60;1.00;;;15.70;99.90;;;;;;4993314;28;20100;-76
2022/08/30 06:33:13;;;;;;;1.95;1.10;;;15.70;99.90;;;;;;4993120;28;20054;-76
2022/08/30 06:35:39;;;;;;;3.38;0.93;;;15.80;99.90;;;;;;4994573;28;20047;-76
2022/08/30 06:38:04;;;;;;;2.45;1.38;;;15.90;99.90;;;;;;4993830;28;20046;-76
2022/08/30 06:40:30;;;;;;;2.28;1.15;;;16.00;99.90;;;;;;4992833;28;20082;-78
2022/08/30 06:42:56;;;;;;;1.85;1.10;;;16.00;99.90;;;;;;4993726;28;20073;-77
2022/08/30 06:45:22;;;;;;;2.00;1.10;;;16.10;99.90;;;;;;4994060;28;20479;-79
2022/08/30 06:47:47;;;;;;;1.75;1.10;;;16.10;99.90;;;;;;4994800;28;20043;-76
2022/08/30 06:50:15;;;;;;;2.08;0.90;;;16.30;99.90;;;;;;4993331;28;20082;-76
2022/08/30 06:52:42;;;;;;;3.70;1.80;;;16.30;99.90;;;;;;4993952;28;20397;-77
2022/08/30 06:55:10;;;;;;;3.50;1.13;;;16.20;99.90;;;;;;4976744;28;20093;-77
2022/08/30 06:57:36;;;;;;;1.95;0.90;;;16.20;99.90;;;;;;4993930;28;20137;-76
2022/08/30 07:00:04;;;;;;;1.27;0.80;;;16.40;99.90;;;;;;4998014;28;20081;-76
2022/08/30 07:02:30;;;;;;;1.95;1.00;;;16.50;99.90;;;;;;4993688;28;20082;-76
2022/08/30 07:04:55;;;;;;;2.30;1.00;;;16.40;99.90;;;;;;4977146;28;20077;-75
2022/08/30 07:07:22;;;;;;;1.42;0.70;;;16.40;99.90;;;;;;4994226;28;20046;-78
2022/08/30 07:09:48;;;;;;;1.30;0.70;;;16.60;99.90;;;;;;4976875;28;20046;-77
2022/08/30 07:12:14;;;;;;;1.77;0.50;;;16.60;99.90;;;;;;4994950;28;20051;-78
2022/08/30 07:14:41;;;;;;;2.83;0.60;;;16.60;99.90;;;;;;4997621;28;20050;-77
2022/08/30 07:19:54;;;;;;;0.80;0.57;;;16.80;99.90;;;;;;5006165;28;20050;-77
2022/08/30 07:22:20;;;;;;;3.70;0.60;;;16.90;99.90;;;;;;4997376;28;20089;-75
2022/08/30 07:24:46;;;;;;;0.80;0.50;;;17.00;99.90;;;;;;4996339;28;20057;-76
2022/08/30 07:27:13;;;;;;;1.60;0.40;;;17.00;99.90;;;;;;4997951;28;20050;-78
2022/08/30 07:29:38;;;;;;;1.85;0.50;;;17.00;99.90;;;;;;4997346;28;20042;-76
2022/08/30 07:32:05;;;;;;;0.70;0.40;;;17.10;99.90;;;;;;4997284;28;20104;-81
2022/08/30 07:34:30;;;;;;;1.17;0.40;;;17.10;99.90;;;;;;4980116;28;20046;-77
2022/08/30 07:36:56;;;;;;;2.00;0.50;;;17.20;99.90;;;;;;4996981;28;20403;-76
2022/08/30 07:39:22;;;;;;;0.88;0.40;;;17.20;99.90;;;;;;4995916;28;20053;-77
2022/08/30 07:41:49;;;;;;;1.27;0.50;;;17.30;99.90;;;;;;4996455;28;20043;-76
2022/08/30 07:44:15;;;;;;;0.80;0.40;;;17.40;99.90;;;;;;4996960;28;20053;-80
2022/08/30 07:46:41;;;;;;;1.02;0.30;;;17.30;99.90;;;;;;4996507;28;20046;-75
2022/08/30 07:49:08;;;;;;;1.60;0.50;;;17.40;99.90;;;;;;4996424;28;20449;-75
2022/08/30 07:51:34;;;;;;;1.35;0.40;;;17.60;99.90;;;;;;4996673;28;20053;-74
2022/08/30 07:54:00;;;;;;;0.95;0.50;;;17.50;99.90;;;;;;4978799;28;20058;-73
2022/08/30 07:56:26;;;;;;;1.63;0.50;;;17.40;99.90;;;;;;4994947;28;20482;-75
2022/08/30 07:58:52;;;;;;;1.05;0.50;;;17.50;99.90;;;;;;4994935;28;20045;-73
2022/08/30 08:01:19;;;;;;;0.95;0.47;;;17.60;99.90;;;;;;4995017;28;20058;-73
2022/08/30 08:03:46;;;;;;;2.38;0.50;;;17.60;99.90;;;;;;4997333;28;20050;-75
2022/08/30 08:06:14;;;;;;;1.50;0.40;;;17.60;99.90;;;;;;4979467;28;20057;-75
2022/08/30 08:08:41;;;;;;;2.40;0.60;;;17.70;99.90;;;;;;4997509;28;20053;-74
2022/08/30 08:11:13;;;;;;;1.60;0.40;;;17.70;99.90;;;;;;4995666;28;20080;-74
2022/08/30 08:13:40;;;;;;;0.70;0.30;;;17.80;99.90;;;;;;4997170;28;20082;-74
2022/08/30 08:16:06;;;;;;;2.35;0.40;;;17.90;99.90;;;;;;4980122;28;20139;-74
2022/08/30 08:18:32;;;;;;;0.93;0.40;;;17.70;99.90;;;;;;4996438;28;20058;-74
2022/08/30 08:20:59;;;;;;;1.60;0.40;;;18.00;99.90;;;;;;4996567;28;20073;-74
2022/08/30 08:23:25;;;;;;;1.02;0.35;;;17.80;99.90;;;;;;4995640;28;20039;-75
2022/08/30 08:25:51;;;;;;;0.80;0.50;;;17.90;99.90;;;;;;4996082;28;20577;-74
2022/08/30 08:28:17;;;;;;;1.23;0.40;;;18.00;99.90;;;;;;4995555;28;20445;-75
2022/08/30 08:30:42;;;;;;;1.50;0.47;;;18.00;99.90;;;;;;4997053;28;20042;-74
2022/08/30 08:33:09;;;;;;;1.90;0.60;;;18.00;99.90;;;;;;4995107;28;20428;-75
2022/08/30 08:35:35;;;;;;;1.42;0.40;;;18.20;99.90;;;;;;4995016;28;20490;-78
2022/08/30 08:38:01;;;;;;;2.05;0.50;;;18.10;99.90;;;;;;4994656;28;20047;-78
2022/08/30 08:40:29;;;;;;;1.42;0.40;;;18.20;99.90;;;;;;4994225;28;20133;-79
2022/08/30 08:43:06;;;;;;;0.60;0.40;;;18.30;99.90;;;;;;4995248;28;20097;-77
2022/08/30 08:46:04;;;;;;;1.83;0.50;;;18.20;99.90;;;;;;4994030;28;20086;-77
2022/08/30 08:48:38;;;;;;;1.80;0.30;;;18.20;99.90;;;;;;4995625;28;20382;-76
2022/08/30 08:54:28;;;;;;;0.98;0.40;;;18.40;99.90;;;;;;4994125;28;20093;-75
2022/08/30 08:56:54;;;;;;;1.02;0.50;;;18.60;99.90;;;;;;4993304;28;20054;-76
2022/08/30 08:59:20;;;;;;;1.67;0.30;;;;;;;;;;4994106;28;20113;-76
2022/08/30 09:01:49;;;;;;;1.02;0.32;;;18.50;99.90;;;;;;4994651;28;20212;-77
2022/08/30 09:04:18;;;;;;;1.63;0.40;;;18.60;99.90;;;;;;4994562;28;20043;-74
2022/08/30 09:06:49;;;;;;;1.23;0.40;;;18.70;99.90;;;;;;4994819;28;20097;-77
2022/08/30 09:09:19;;;;;;;2.58;0.40;;;18.70;99.90;;;;;;4993543;28;20491;-78
2022/08/30 09:11:46;;;;;;;0.68;0.30;;;18.80;99.90;;;;;;4994616;28;20050;-77
2022/08/30 09:14:18;;;;;;;1.00;0.40;;;18.80;99.90;;;;;;4994906;28;20104;-77
2022/08/30 09:17:03;;;;;;;1.15;0.47;;;18.70;99.90;;;;;;4994245;28;20060;-76
2022/08/30 09:19:43;;;;;;;1.58;0.35;;;18.80;99.90;;;;;;4994198;28;20054;-75
2022/08/30 09:22:33;;;;;;;2.40;0.40;;;18.40;99.90;;;;;;4993602;28;20050;-77
2022/08/30 09:25:01;;;;;;;2.72;0.55;;;18.80;99.90;;;;;;4994405;28;20050;-77
2022/08/30 09:27:37;;;;;;;2.65;0.50;;;18.70;99.90;;;;;;4976981;28;20046;-76
2022/08/30 09:30:09;;;;;;;1.55;0.40;;;18.70;99.90;;;;;;4995007;28;20096;-76
2022/08/30 09:32:39;;;;;;;1.42;0.25;;;18.70;99.90;;;;;;4993871;28;20050;-76
2022/08/30 09:35:09;;;;;;;0.82;0.40;;;18.70;99.90;;;;;;4993376;28;20046;-76
2022/08/30 09:37:39;;;;;;;1.27;0.65;;;18.80;99.90;;;;;;4994419;28;20050;-76
2022/08/30 09:40:21;;;;;;;1.75;0.70;;;18.80;99.90;;;;;;4993012;28;20053;-77
2022/08/30 09:43:09;;;;;;;1.63;0.40;;;18.70;99.90;;;;;;4993672;28;20508;-75
2022/08/30 09:45:40;;;;;;;0.80;0.40;;;18.70;99.90;;;;;;4994403;28;20050;-75
2022/08/30 09:48:33;;;;;;;1.00;0.40;;;18.60;99.90;;;;;;4994570;28;20417;-76
2022/08/30 09:51:14;;;;;;;1.50;0.45;;;18.60;99.90;;;;;;4992697;28;20049;-77
2022/08/30 09:54:17;;;;;;;0.98;0.40;;;18.50;99.90;;;;;;4993125;28;20077;-80
2022/08/30 09:56:57;;;;;;;;;;;18.50;99.90;;;;;;4992374;28;20094;-76
2022/08/30 09:59:36;;;;;;;1.17;0.40;;;18.50;99.90;;;;;;4993212;28;19925;-77
2022/08/30 10:02:47;;;;;;;1.23;0.38;;;18.60;99.90;;;;;;4993335;28;20122;-76
2022/08/30 10:05:21;;;;;;;2.28;0.50;;;18.70;99.90;;;;;;4993610;28;20096;-74
2022/08/30 10:08:24;;;;;;;0.50;0.40;;;18.80;99.90;;;;;;4993092;28;20055;-74
2022/08/30 10:11:16;;;;;;;1.88;0.40;;;19.00;99.90;;;;;;4993998;28;20086;-75
2022/08/30 10:14:14;;;;;;;2.30;0.50;;;19.10;99.90;;;;;;4994902;28;20050;-76
2022/08/30 10:17:37;;;;;;;0.75;0.50;;;19.10;99.90;;;;;;4993683;28;20092;-76
2022/08/30 10:20:18;;;;;;;0.93;0.40;;;19.20;99.90;;;;;;4943272;28;20055;-75
2022/08/30 10:22:57;;;;;;;2.92;0.40;;;19.20;99.90;;;;;;4976293;28;20332;-75
2022/08/30 10:25:47;;;;;;;2.15;0.50;;;19.20;99.90;;;;;;4993713;28;20367;-77
2022/08/30 10:28:14;;;;;;;1.20;0.35;;;19.30;99.90;;;;;;4993945;28;20054;-76
2022/08/30 10:30:50;;;;;;;2.20;0.40;;;19.30;99.90;;;;;;4993594;28;20046;-75
2022/08/30 10:33:27;;;;;;;0.75;0.40;;;19.40;99.90;;;;;;4993843;28;20046;-76
2022/08/30 10:35:57;;;;;;;1.67;0.40;;;19.40;99.90;;;;;;4994376;28;20111;-76
2022/08/30 10:38:31;;;;;;;0.60;0.40;;;19.60;99.90;;;;;;4992958;28;20076;-76
2022/08/30 10:41:27;;;;;;;0.82;0.45;;;19.60;99.90;;;;;;4993862;28;20424;-75
2022/08/30 10:44:08;;;;;;;0.93;0.50;;;19.60;99.90;;;;;;4996700;28;20046;-73
2022/08/30 10:46:52;;;;;;;0.70;0.38;;;19.60;99.90;;;;;;4995457;28;20109;-72
2022/08/30 10:49:24;;;;;;;1.02;0.40;;;19.70;99.90;;;;;;4998498;28;20445;-73
2022/08/30 10:51:57;;;;;;;1.15;0.30;;;19.60;99.90;;;;;;4981236;28;20482;-73
2022/08/30 10:54:51;;;;;;;1.42;0.50;;;19.70;99.90;;;;;;4998842;28;20435;-74
2022/08/30 10:57:18;;;;;;;0.68;0.40;;;19.70;99.90;;;;;;4997835;28;20058;-74
2022/08/30 11:00:00;;;;;;;0.57;0.40;;;19.80;99.90;;;;;;4997948;28;20042;-74
2022/08/30 11:02:42;;;;;;;0.93;0.40;;;19.80;99.90;;;;;;4997615;28;20054;-74
2022/08/30 11:05:11;;;;;;;;;;;19.90;99.90;;;;;;4997893;28;20042;-74
2022/08/30 11:08:07;;;;;;;1.23;0.30;;;20.00;99.90;;;;;;4997746;28;19926;-75
2022/08/30 11:10:54;;;;;;;1.42;0.40;;;20.10;99.90;;;;;;4996917;28;20122;-78
2022/08/30 11:13:24;;;;;;;1.13;0.40;;;20.10;99.90;;;;;;4997609;28;20445;-75
2022/08/30 11:16:01;;;;;;;1.23;0.65;;;20.20;99.90;;;;;;4998122;28;20134;-75
2022/08/30 11:18:31;;;;;;;0.40;0.40;;;20.20;99.90;;;;;;4997597;28;20054;-74
2022/08/30 11:21:31;;;;;;;1.10;0.90;;;20.30;99.90;;;;;;4997161;28;20053;-76
2022/08/30 11:24:21;;;;;;;1.05;0.40;;;20.50;99.90;;;;;;4985803;28;20046;-76
2022/08/30 11:26:47;;;;;;;1.00;0.43;;;20.40;99.90;;;;;;4998355;28;20078;-76
2022/08/30 11:29:32;;;;;;;1.35;0.40;;;20.40;99.90;;;;;;4997723;28;20398;-77
2022/08/30 11:32:13;;;;;;;0.75;0.30;;;20.50;99.90;;;;;;4996995;28;20046;-76
2022/08/30 11:34:47;;;;;;;2.03;0.40;;;20.60;99.90;;;;;;4996831;28;20094;-76
2022/08/30 11:37:35;;;;;;;1.35;0.40;;;20.60;99.90;;;;;;4995855;28;20046;-75
2022/08/30 11:40:32;;;;;;;1.65;0.30;;;20.70;99.90;;;;;;4995569;28;20046;-76
2022/08/30 11:43:33;;;;;;;3.85;0.40;;;20.70;99.90;;;;;;4986761;28;20112;-76
2022/08/30 11:46:27;;;;;;;2.85;2.05;;;20.80;99.90;;;;;;4997714;28;20116;-75
2022/08/30 11:49:04;;;;;;;1.33;0.40;;;20.70;99.90;;;;;;4995878;28;20046;-77
2022/08/30 11:51:43;;;;;;;0.65;0.40;;;20.70;99.90;;;;;;4997020;28;20049;-76
2022/08/30 11:54:24;;;;;;;0.50;0.38;;;20.70;99.90;;;;;;4995810;28;20085;-78
2022/08/30 11:57:17;;;;;;;1.85;0.30;;;20.60;99.90;;;;;;4998495;28;20065;-76
2022/08/30 12:00:00;;;;;;;1.25;0.35;;;20.60;99.90;;;;;;4997382;28;20466;-76
2022/08/30 12:02:43;;;;;;;1.38;0.35;;;20.50;99.90;;;;;;4996986;28;20085;-76
2022/08/30 12:05:34;;;;;;;1.15;0.40;;;20.50;99.90;;;;;;4997230;28;20046;-76
2022/08/30 12:08:26;;;;;;;0.68;0.30;;;20.50;99.90;;;;;;4997165;28;20138;-75
2022/08/30 12:11:02;;;;;;;0.73;0.32;;;20.60;99.90;;;;;;4996838;28;20042;-76
2022/08/30 12:13:35;;;;;;;0.65;0.40;;;20.60;99.90;;;;;;4996309;28;20050;-75
2022/08/30 12:16:07;;;;;;;0.40;0.30;;;20.70;99.90;;;;;;4997878;28;20398;-79
2022/08/30 12:18:36;;;;;;;1.65;0.40;;;20.80;99.90;;;;;;4981110;28;20054;-77
2022/08/30 12:21:24;;;;;;;1.67;0.30;;;20.90;99.90;;;;;;4997719;28;20061;-75
2022/08/30 12:24:17;;;;;;;1.25;0.45;;;21.00;99.90;;;;;;4999205;28;20050;-76
2022/08/30 12:26:44;;;;;;;;;;;20.90;99.90;;;;;;4998305;28;20054;-76
2022/08/30 12:29:13;;;;;;;2.13;0.40;;;20.90;99.90;;;;;;4998093;28;19929;-77
2022/08/30 12:31:47;;;;;;;1.55;0.30;;;20.90;99.90;;;;;;4995529;28;20054;-76
2022/08/30 12:34:21;;;;;;;0.93;0.45;;;21.10;99.90;;;;;;4996859;28;20046;-78
2022/08/30 12:37:07;;;;;;;0.85;0.30;;;21.00;99.90;;;;;;4995736;28;20081;-77
2022/08/30 12:39:38;;;;;;;0.50;0.30;;;21.00;99.90;;;;;;4996541;28;20057;-76
2022/08/30 12:42:23;;;;;;;1.03;0.40;;;21.00;99.90;;;;;;4996339;28;20573;-77
2022/08/30 12:44:53;;;;;;;1.58;0.40;;;20.90;99.90;;;;;;4995419;28;20088;-76
2022/08/30 12:47:28;;;;;;;1.17;0.40;;;20.90;99.90;;;;;;4995956;28;20046;-76
2022/08/30 12:49:55;;;;;;;0.77;0.38;;;20.80;99.90;;;;;;4996040;28;20042;-76
2022/08/30 12:52:30;;;;;;;1.25;0.55;;;20.70;99.90;;;;;;4995785;28;20054;-76
2022/08/30 12:55:17;;;;;;;1.42;0.50;;;20.70;99.90;;;;;;4995620;28;20047;-77
2022/08/30 12:57:53;;;;;;;3.47;0.40;;;20.80;99.90;;;;;;4995859;28;20120;-76
2022/08/30 13:00:34;;;;;;;0.30;0.30;;;20.80;99.90;;;;;;4994560;28;20043;-77
2022/08/30 13:03:35;;;;;;;0.93;0.40;;;20.90;99.90;;;;;;4994637;28;20111;-77
2022/08/30 13:06:02;;;;;;;2.05;0.32;;;20.90;99.90;;;;;;4995253;28;20085;-77
2022/08/30 13:08:51;;;;;;;0.70;0.40;;;20.90;99.90;;;;;;4996405;28;20050;-76
2022/08/30 13:11:19;;;;;;;1.70;0.40;;;21.00;99.90;;;;;;4995461;28;20057;-75
2022/08/30 13:13:51;;;;;;;2.63;0.50;;;20.80;99.90;;;;;;4994567;28;20092;-78
2022/08/30 13:16:21;;;;;;;0.75;0.30;;;20.90;99.90;;;;;;4994491;28;20054;-79